Time;durP1;ratioP1;P1;durP2;ratioP2;P2;SDS_P1;SDS_P2;PMS_P1;PMS_P2;Temp;Humidity;BMP_temperature;BMP_pressure;BME280_temperature;BME280_humidity;BME280_pressure;Samples;Min_cycle;Max_cycle;Signal;HPM_P1;HPM_P2
2023/07/07 00:01:01;;;;;;;0.40;0.40;;;14.10;99.90;;;;;;5135564;27;20184;-72
2023/07/07 00:03:27;;;;;;;0.40;0.40;;;14.10;99.90;;;;;;5135436;27;20050;-72
2023/07/07 00:05:52;;;;;;;0.40;0.40;;;14.00;99.90;;;;;;5135066;27;20054;-72
2023/07/07 00:08:18;;;;;;;0.40;0.40;;;14.00;99.90;;;;;;5135604;27;20051;-71
2023/07/07 00:10:44;;;;;;;0.40;0.40;;;13.90;99.90;;;;;;5117097;27;20074;-72
2023/07/07 00:13:14;;;;;;;0.38;0.38;;;13.90;99.90;;;;;;5135562;27;20367;-73
2023/07/07 00:15:47;;;;;;;0.40;0.40;;;13.90;99.90;;;;;;5135253;27;20042;-73
2023/07/07 00:18:15;;;;;;;0.40;0.40;;;13.90;99.90;;;;;;5135638;27;20027;-74
2023/07/07 00:20:42;;;;;;;0.40;0.40;;;13.80;99.90;;;;;;5135150;27;20072;-73
2023/07/07 00:23:08;;;;;;;0.40;0.40;;;13.90;99.90;;;;;;5135121;27;20126;-72
2023/07/07 00:25:33;;;;;;;0.30;0.30;;;13.80;99.90;;;;;;5135020;27;20126;-72
2023/07/07 00:27:59;;;;;;;0.40;0.40;;;13.80;99.90;;;;;;5135079;27;20062;-72
2023/07/07 00:30:25;;;;;;;0.50;0.50;;;13.80;99.90;;;;;;5134974;27;20486;-71
2023/07/07 00:32:50;;;;;;;0.40;0.40;;;13.80;99.90;;;;;;5135197;27;20375;-71
2023/07/07 00:35:16;;;;;;;0.40;0.40;;;13.70;99.90;;;;;;5135166;27;20118;-71
2023/07/07 00:37:45;;;;;;;0.40;0.40;;;13.70;99.90;;;;;;5134691;27;20045;-72
2023/07/07 00:40:11;;;;;;;0.80;0.63;;;13.70;99.90;;;;;;5134791;27;20100;-72
2023/07/07 00:42:37;;;;;;;0.40;0.40;;;13.60;99.90;;;;;;5116532;27;20043;-74
2023/07/07 00:45:09;;;;;;;0.40;0.40;;;13.60;99.90;;;;;;5134726;27;20068;-71
2023/07/07 00:47:41;;;;;;;0.30;0.30;;;13.50;99.90;;;;;;5134687;27;20126;-72
2023/07/07 00:50:09;;;;;;;0.40;0.40;;;13.50;99.90;;;;;;5134821;27;20467;-71
2023/07/07 00:52:36;;;;;;;0.40;0.40;;;13.50;99.90;;;;;;5134654;27;20050;-74
2023/07/07 00:55:02;;;;;;;0.40;0.40;;;13.40;99.90;;;;;;5134495;28;20344;-72
2023/07/07 00:57:28;;;;;;;0.40;0.40;;;13.50;99.90;;;;;;5134876;28;20171;-72
2023/07/07 00:59:54;;;;;;;0.40;0.40;;;13.40;99.90;;;;;;5134609;28;20035;-72
2023/07/07 01:02:25;;;;;;;0.40;0.40;;;13.40;99.90;;;;;;5134761;28;20035;-72
2023/07/07 01:04:59;;;;;;;0.38;0.38;;;13.40;99.90;;;;;;5134257;28;20058;-72
2023/07/07 01:07:31;;;;;;;0.40;0.40;;;13.40;99.90;;;;;;5134604;28;20394;-72
2023/07/07 01:09:57;;;;;;;0.80;0.80;;;13.40;99.90;;;;;;5116823;27;20035;-73
2023/07/07 01:12:23;;;;;;;0.40;0.40;;;13.40;99.90;;;;;;5138732;27;20125;-72
2023/07/07 01:14:51;;;;;;;0.40;0.40;;;13.40;99.90;;;;;;5138781;27;20311;-72
2023/07/07 01:17:46;;;;;;;0.40;0.40;;;13.40;99.90;;;;;;5138365;27;20486;-72
2023/07/07 01:20:30;;;;;;;0.40;0.40;;;13.40;99.90;;;;;;5120330;27;20078;-72
2023/07/07 01:23:34;;;;;;;0.40;0.40;;;13.40;99.90;;;;;;5138823;27;20051;-71
2023/07/07 01:26:28;;;;;;;0.40;0.40;;;13.40;99.90;;;;;;5138304;27;20038;-71
2023/07/07 01:29:15;;;;;;;0.40;0.40;;;13.40;99.90;;;;;;5138549;27;20037;-73
2023/07/07 01:31:50;;;;;;;0.30;0.30;;;13.40;99.90;;;;;;5138307;27;20482;-71
2023/07/07 01:34:16;;;;;;;0.50;0.50;;;13.40;99.90;;;;;;5138194;27;20475;-74
2023/07/07 01:36:42;;;;;;;0.40;0.40;;;13.40;99.90;;;;;;5138750;27;20072;-72
2023/07/07 01:39:11;;;;;;;0.40;0.40;;;13.40;99.90;;;;;;5138194;27;20045;-73
2023/07/07 01:41:57;;;;;;;0.50;0.50;;;13.30;99.90;;;;;;5138486;27;20039;-72
2023/07/07 01:44:36;;;;;;;0.43;0.43;;;13.40;99.90;;;;;;5138176;27;20035;-71
2023/07/07 01:47:15;;;;;;;0.40;0.40;;;13.30;99.90;;;;;;5138031;27;20043;-72
2023/07/07 01:49:48;;;;;;;0.43;0.43;;;13.30;99.90;;;;;;5138099;27;20118;-71
2023/07/07 01:52:27;;;;;;;0.50;0.50;;;13.20;99.90;;;;;;5138307;27;20122;-72
2023/07/07 01:55:03;;;;;;;0.40;0.40;;;13.20;99.90;;;;;;5137951;27;20042;-72
2023/07/07 01:57:30;;;;;;;0.45;0.45;;;13.20;99.90;;;;;;5137892;27;20039;-71
2023/07/07 01:59:56;;;;;;;0.50;0.50;;;13.20;99.90;;;;;;5137846;27;20043;-73
2023/07/07 02:02:23;;;;;;;0.40;0.40;;;13.20;99.90;;;;;;5137846;27;20031;-73
2023/07/07 02:04:48;;;;;;;0.40;0.40;;;13.20;99.90;;;;;;5137867;27;20348;-72
2023/07/07 02:07:14;;;;;;;0.50;0.50;;;13.20;99.90;;;;;;5118515;27;20443;-71
2023/07/07 02:09:40;;;;;;;0.57;0.57;;;13.10;99.90;;;;;;5137682;27;20490;-71
2023/07/07 02:12:06;;;;;;;0.50;0.50;;;13.10;99.90;;;;;;5118967;27;20046;-73
2023/07/07 02:14:32;;;;;;;0.40;0.40;;;13.10;99.90;;;;;;5137532;27;20039;-71
2023/07/07 02:16:58;;;;;;;0.43;0.43;;;13.10;99.90;;;;;;5137971;27;20046;-71
2023/07/07 02:19:23;;;;;;;0.40;0.40;;;13.00;99.90;;;;;;5137571;27;20399;-73
2023/07/07 02:21:49;;;;;;;0.60;0.60;;;13.00;99.90;;;;;;5137059;27;20043;-72
2023/07/07 02:24:15;;;;;;;0.40;0.40;;;13.00;99.90;;;;;;5137456;27;20050;-70
2023/07/07 02:26:40;;;;;;;0.40;0.40;;;13.00;99.90;;;;;;5137373;27;20041;-72
2023/07/07 02:29:06;;;;;;;0.40;0.40;;;12.90;99.90;;;;;;5137363;27;20359;-71
2023/07/07 02:31:32;;;;;;;0.40;0.40;;;13.00;99.90;;;;;;5137302;27;20039;-71
2023/07/07 02:33:57;;;;;;;0.40;0.40;;;12.90;99.90;;;;;;5137166;27;20463;-71
2023/07/07 02:36:24;;;;;;;0.40;0.40;;;12.90;99.90;;;;;;5137243;27;20479;-73
2023/07/07 02:38:52;;;;;;;0.55;0.55;;;12.90;99.90;;;;;;5137090;27;20100;-72
2023/07/07 02:41:19;;;;;;;0.40;0.40;;;12.90;99.90;;;;;;5137021;27;20074;-74
2023/07/07 02:43:45;;;;;;;0.40;0.40;;;12.80;99.90;;;;;;5137120;27;20484;-71
2023/07/07 02:46:10;;;;;;;0.47;0.47;;;12.80;99.90;;;;;;5136924;27;20047;-72
2023/07/07 02:48:37;;;;;;;0.50;0.50;;;12.80;99.90;;;;;;5137387;27;20082;-72
2023/07/07 02:51:06;;;;;;;0.60;0.60;;;12.80;99.90;;;;;;5136923;27;20405;-72
2023/07/07 02:53:34;;;;;;;0.40;0.40;;;12.80;99.90;;;;;;5136791;27;20385;-72
2023/07/07 02:56:00;;;;;;;0.50;0.50;;;12.70;99.90;;;;;;5136754;27;20394;-72
2023/07/07 02:58:25;;;;;;;0.60;0.60;;;12.80;99.90;;;;;;5136785;27;20043;-73
2023/07/07 03:00:52;;;;;;;0.50;0.50;;;12.70;99.90;;;;;;5137089;27;20269;-72
2023/07/07 03:03:18;;;;;;;0.50;0.50;;;12.70;99.90;;;;;;5136993;27;20379;-72
2023/07/07 03:05:44;;;;;;;0.52;0.52;;;12.70;99.90;;;;;;5136396;27;20055;-72
2023/07/07 03:08:10;;;;;;;0.50;0.50;;;12.70;99.90;;;;;;5136509;27;20031;-73
2023/07/07 03:10:37;;;;;;;0.50;0.50;;;12.70;99.90;;;;;;5136356;27;20095;-72
2023/07/07 03:13:04;;;;;;;0.50;0.50;;;12.70;99.90;;;;;;5136334;27;20035;-72
2023/07/07 03:15:40;;;;;;;0.50;0.50;;;12.70;99.90;;;;;;5136693;27;20043;-71
2023/07/07 03:18:10;;;;;;;0.50;0.50;;;12.70;99.90;;;;;;5136331;27;20100;-72
2023/07/07 03:20:37;;;;;;;0.40;0.40;;;12.70;99.90;;;;;;5136178;27;20548;-74
2023/07/07 03:23:03;;;;;;;0.40;0.40;;;12.70;99.90;;;;;;5117898;27;20039;-71
2023/07/07 03:25:30;;;;;;;0.50;0.50;;;12.70;99.90;;;;;;5136662;27;20039;-72
2023/07/07 03:27:55;;;;;;;0.50;0.50;;;12.70;99.90;;;;;;5136124;27;20050;-72
2023/07/07 03:30:21;;;;;;;0.50;0.50;;;12.70;99.90;;;;;;5136629;27;20039;-72
2023/07/07 03:32:47;;;;;;;0.50;0.50;;;12.70;99.90;;;;;;5135197;27;20039;-73
2023/07/07 03:35:13;;;;;;;0.60;0.60;;;12.70;99.90;;;;;;5135976;27;20035;-73
2023/07/07 03:37:39;;;;;;;0.50;0.50;;;12.70;99.90;;;;;;5135985;27;20122;-74
2023/07/07 03:40:06;;;;;;;0.50;0.50;;;12.70;99.90;;;;;;5135908;27;20042;-72
2023/07/07 03:42:33;;;;;;;0.40;0.40;;;12.70;99.90;;;;;;5134766;27;20050;-73
2023/07/07 03:44:59;;;;;;;0.60;0.60;;;12.70;99.90;;;;;;5135964;27;20027;-73
2023/07/07 03:47:24;;;;;;;0.50;0.50;;;12.70;99.90;;;;;;5135809;27;20065;-72
2023/07/07 03:49:51;;;;;;;0.50;0.50;;;12.70;99.90;;;;;;5135691;27;20031;-73
2023/07/07 03:52:17;;;;;;;0.40;0.40;;;12.70;99.90;;;;;;5135624;27;20047;-72
2023/07/07 03:54:42;;;;;;;0.60;0.60;;;12.70;99.90;;;;;;5135473;27;20057;-72
2023/07/07 03:57:10;;;;;;;0.50;0.50;;;12.70;99.90;;;;;;5135142;27;20047;-71
2023/07/07 03:59:36;;;;;;;0.50;0.50;;;12.70;99.90;;;;;;5135519;27;20050;-73
2023/07/07 04:02:03;;;;;;;0.43;0.43;;;12.70;99.90;;;;;;5135450;27;20054;-71
2023/07/07 04:04:29;;;;;;;0.60;0.60;;;12.80;99.90;;;;;;5135392;27;20468;-72
2023/07/07 04:06:58;;;;;;;0.90;0.90;;;12.90;99.90;;;;;;5135424;27;20129;-71
2023/07/07 04:09:24;;;;;;;0.60;0.60;;;12.80;99.90;;;;;;5135363;27;20043;-73
2023/07/07 04:11:50;;;;;;;0.50;0.50;;;12.90;99.90;;;;;;5135293;27;20474;-74
2023/07/07 04:14:16;;;;;;;0.50;0.50;;;12.90;99.90;;;;;;5135284;27;20050;-71
2023/07/07 04:16:42;;;;;;;0.82;0.82;;;12.90;99.90;;;;;;5135240;27;20382;-73
2023/07/07 04:19:08;;;;;;;0.50;0.50;;;13.00;99.90;;;;;;5135241;27;20050;-72
2023/07/07 04:21:34;;;;;;;0.50;0.50;;;12.90;99.90;;;;;;5134905;27;20463;-70
2023/07/07 04:24:01;;;;;;;0.50;0.50;;;13.00;99.90;;;;;;5116669;27;20050;-72
2023/07/07 04:26:29;;;;;;;0.50;0.50;;;13.00;99.90;;;;;;5135072;27;20478;-72
2023/07/07 04:28:57;;;;;;;0.50;0.50;;;13.00;99.90;;;;;;5134860;27;20509;-71
2023/07/07 04:31:25;;;;;;;0.50;0.50;;;13.10;99.90;;;;;;5135021;27;20355;-73
2023/07/07 04:33:50;;;;;;;0.40;0.40;;;13.10;99.90;;;;;;5134996;27;20039;-74
2023/07/07 04:36:17;;;;;;;0.50;0.50;;;13.10;99.90;;;;;;5134810;27;20467;-73
2023/07/07 04:38:44;;;;;;;0.50;0.50;;;13.20;99.90;;;;;;5134905;27;20043;-71
2023/07/07 04:41:13;;;;;;;1.00;0.93;;;13.20;99.90;;;;;;5135016;27;20039;-71
2023/07/07 04:43:45;;;;;;;1.30;0.80;;;13.30;99.90;;;;;;5135028;27;20489;-74
2023/07/07 04:46:12;;;;;;;0.68;0.68;;;13.40;99.90;;;;;;5134858;27;20039;-70
2023/07/07 04:48:39;;;;;;;1.15;0.95;;;13.50;99.90;;;;;;5134765;27;20374;-73
2023/07/07 04:51:07;;;;;;;0.80;0.80;;;13.60;99.90;;;;;;5134651;27;20424;-72
2023/07/07 04:53:33;;;;;;;0.50;0.50;;;13.60;99.90;;;;;;5134691;27;20072;-73
2023/07/07 04:56:01;;;;;;;3.53;3.03;;;13.70;99.90;;;;;;5134658;27;20042;-73
2023/07/07 04:58:28;;;;;;;1.05;0.75;;;13.70;99.90;;;;;;5134603;28;20035;-71
2023/07/07 05:01:06;;;;;;;1.05;0.95;;;13.80;99.90;;;;;;5134752;28;20035;-71
2023/07/07 05:03:31;;;;;;;0.50;0.50;;;13.80;99.90;;;;;;5134623;28;20039;-75
2023/07/07 05:05:57;;;;;;;0.60;0.60;;;13.90;99.90;;;;;;5134523;28;20051;-78
2023/07/07 05:08:23;;;;;;;0.70;0.70;;;14.00;99.90;;;;;;5134297;28;20118;-78
2023/07/07 05:10:49;;;;;;;0.53;0.53;;;14.00;99.90;;;;;;5134869;28;20039;-71
2023/07/07 05:13:14;;;;;;;0.50;0.50;;;14.10;99.90;;;;;;5134767;28;20027;-72
2023/07/07 05:15:40;;;;;;;0.70;0.70;;;14.20;99.90;;;;;;5134223;28;20077;-73
2023/07/07 05:18:07;;;;;;;0.50;0.50;;;14.30;99.90;;;;;;5134412;28;20047;-73
2023/07/07 05:20:33;;;;;;;;;;;14.30;99.90;;;;;;5135385;28;20050;-72
2023/07/07 05:22:58;;;;;;;0.50;0.50;;;14.50;99.90;;;;;;5134360;28;19915;-72
2023/07/07 05:25:24;;;;;;;0.70;0.70;;;14.50;99.90;;;;;;5116113;28;20051;-73
2023/07/07 05:27:50;;;;;;;0.60;0.60;;;14.70;99.90;;;;;;5134306;28;20067;-73
2023/07/07 05:30:15;;;;;;;0.70;0.70;;;14.90;99.90;;;;;;5134379;28;20050;-71
2023/07/07 05:32:41;;;;;;;0.60;0.60;;;15.20;99.90;;;;;;5134217;28;20033;-72
2023/07/07 05:35:07;;;;;;;1.30;1.13;;;15.50;99.90;;;;;;5134272;28;20455;-76
2023/07/07 05:37:33;;;;;;;0.50;0.50;;;15.90;99.90;;;;;;5134307;28;20402;-71
2023/07/07 05:39:58;;;;;;;1.17;1.07;;;16.30;99.90;;;;;;5134615;28;20039;-72
2023/07/07 05:42:24;;;;;;;0.70;0.70;;;16.60;99.90;;;;;;5134678;28;20027;-72
2023/07/07 05:44:51;;;;;;;0.60;0.60;;;17.00;99.90;;;;;;5134702;28;20035;-72
2023/07/07 05:47:16;;;;;;;0.50;0.50;;;17.40;99.90;;;;;;5134368;28;20039;-71
2023/07/07 05:49:42;;;;;;;0.50;0.50;;;17.70;99.90;;;;;;5134436;28;20042;-71
2023/07/07 05:52:09;;;;;;;0.50;0.50;;;18.00;99.90;;;;;;5116048;28;20355;-72
2023/07/07 05:54:34;;;;;;;0.90;0.90;;;18.30;99.90;;;;;;5134073;28;20118;-71
2023/07/07 05:57:02;;;;;;;0.50;0.50;;;18.60;99.90;;;;;;5136450;27;20073;-71
2023/07/07 05:59:29;;;;;;;0.60;0.57;;;18.90;99.90;;;;;;5138065;27;20056;-71
2023/07/07 06:01:55;;;;;;;1.05;1.00;;;19.20;99.90;;;;;;5137969;27;20172;-72
2023/07/07 06:04:21;;;;;;;0.33;0.33;;;19.30;99.90;;;;;;5137644;27;20084;-71
2023/07/07 06:06:46;;;;;;;0.40;0.40;;;19.50;99.90;;;;;;5138239;27;20047;-71
2023/07/07 06:09:12;;;;;;;0.30;0.30;;;19.80;99.90;;;;;;5137942;27;20027;-70
2023/07/07 06:11:38;;;;;;;0.30;0.30;;;19.90;99.90;;;;;;5137785;27;20031;-70
2023/07/07 06:14:03;;;;;;;0.37;0.37;;;20.10;99.90;;;;;;5137866;27;20116;-70
2023/07/07 06:16:29;;;;;;;0.70;0.70;;;20.20;99.90;;;;;;5137878;27;20081;-70
2023/07/07 06:18:54;;;;;;;0.40;0.40;;;20.40;99.90;;;;;;5137391;27;20471;-71
2023/07/07 06:21:20;;;;;;;0.40;0.40;;;20.50;99.90;;;;;;5137667;27;20039;-70
2023/07/07 06:23:46;;;;;;;0.30;0.30;;;20.60;99.90;;;;;;5136023;27;20407;-70
2023/07/07 06:26:11;;;;;;;1.03;0.93;;;20.70;99.90;;;;;;5136958;27;20053;-70
2023/07/07 06:28:37;;;;;;;0.60;0.60;;;20.70;99.90;;;;;;5137693;27;20041;-71
2023/07/07 06:31:02;;;;;;;0.73;0.40;;;20.60;99.90;;;;;;5135573;27;20549;-70
2023/07/07 06:33:28;;;;;;;0.40;0.40;;;20.60;99.90;;;;;;5137885;27;20079;-71
2023/07/07 06:35:54;;;;;;;0.30;0.30;;;20.70;99.90;;;;;;5137187;27;20039;-71
2023/07/07 06:38:19;;;;;;;0.87;0.80;;;20.60;99.90;;;;;;5137033;27;20039;-71
2023/07/07 06:40:48;;;;;;;0.93;0.87;;;20.60;99.90;;;;;;5136512;27;20111;-71
2023/07/07 06:43:18;;;;;;;0.40;0.40;;;20.60;99.90;;;;;;5137260;27;20358;-71
2023/07/07 06:45:45;;;;;;;0.30;0.30;;;20.50;99.90;;;;;;5136932;27;20161;-70
2023/07/07 06:48:11;;;;;;;0.38;0.38;;;20.60;99.90;;;;;;5136420;27;20074;-71
2023/07/07 06:50:40;;;;;;;0.30;0.30;;;20.70;99.90;;;;;;5136749;27;20127;-71
2023/07/07 06:53:06;;;;;;;0.20;0.20;;;20.80;99.90;;;;;;5136528;27;20076;-71
2023/07/07 06:55:32;;;;;;;0.30;0.30;;;20.90;99.90;;;;;;5136824;27;20078;-71
2023/07/07 06:57:57;;;;;;;0.30;0.30;;;21.00;99.90;;;;;;5136337;27;20538;-71
2023/07/07 07:00:23;;;;;;;0.30;0.30;;;21.10;99.90;;;;;;5136739;27;20031;-72
2023/07/07 07:02:48;;;;;;;0.40;0.40;;;21.10;99.90;;;;;;5136329;27;20035;-71
2023/07/07 07:05:14;;;;;;;1.23;1.13;;;21.10;99.90;;;;;;5152252;27;20092;-70
2023/07/07 07:07:40;;;;;;;0.20;0.20;;;21.20;99.90;;;;;;5135315;27;20570;-72
2023/07/07 07:10:06;;;;;;;0.40;0.40;;;21.30;99.90;;;;;;5136041;27;20050;-70
2023/07/07 07:12:32;;;;;;;0.28;0.28;;;21.40;99.90;;;;;;5135988;27;20463;-71
2023/07/07 07:14:58;;;;;;;0.30;0.30;;;21.50;99.90;;;;;;5135952;27;20042;-71
2023/07/07 07:17:24;;;;;;;1.70;1.60;;;21.60;99.90;;;;;;5135988;27;20303;-71
2023/07/07 07:19:50;;;;;;;0.30;0.30;;;21.80;99.90;;;;;;5135880;27;20467;-71
2023/07/07 07:22:16;;;;;;;0.30;0.30;;;21.90;99.90;;;;;;5136059;27;20068;-70
2023/07/07 07:24:42;;;;;;;0.28;0.28;;;22.00;99.90;;;;;;5117761;27;20064;-71
2023/07/07 07:27:08;;;;;;;0.30;0.30;;;22.20;99.90;;;;;;5136109;27;20047;-71
2023/07/07 07:29:34;;;;;;;0.25;0.25;;;22.30;99.90;;;;;;5152064;27;20035;-71
2023/07/07 07:32:00;;;;;;;0.67;0.67;;;22.30;99.90;;;;;;5135734;27;20050;-71
2023/07/07 07:34:28;;;;;;;0.50;0.47;;;22.30;99.90;;;;;;5117787;27;20039;-71
2023/07/07 07:36:56;;;;;;;0.43;0.43;;;22.30;99.90;;;;;;5135662;27;20047;-70
2023/07/07 07:39:22;;;;;;;0.30;0.30;;;22.40;99.90;;;;;;5135583;27;20165;-73
2023/07/07 07:41:50;;;;;;;0.30;0.30;;;22.60;99.90;;;;;;5117293;27;20039;-72
2023/07/07 07:44:17;;;;;;;0.30;0.30;;;22.60;99.90;;;;;;5135647;27;20498;-73
2023/07/07 07:46:45;;;;;;;0.30;0.30;;;22.70;99.90;;;;;;5135522;27;20043;-73
2023/07/07 07:49:11;;;;;;;0.30;0.30;;;22.70;99.90;;;;;;5135842;27;20043;-73
2023/07/07 07:51:38;;;;;;;0.40;0.40;;;22.90;99.90;;;;;;5135506;27;20050;-73
2023/07/07 07:54:10;;;;;;;0.40;0.40;;;22.90;99.90;;;;;;5135140;27;20119;-73
2023/07/07 07:56:36;;;;;;;0.32;0.32;;;22.90;99.90;;;;;;5135400;27;20046;-72
2023/07/07 07:59:03;;;;;;;0.40;0.40;;;23.00;99.90;;;;;;5135183;27;20382;-73
2023/07/07 08:01:28;;;;;;;0.40;0.40;;;23.20;99.90;;;;;;5135327;27;20470;-73
2023/07/07 08:03:55;;;;;;;0.30;0.30;;;23.20;99.90;;;;;;5135195;27;20031;-73
2023/07/07 08:06:21;;;;;;;0.85;0.50;;;23.30;99.90;;;;;;5135272;27;20050;-74
2023/07/07 08:08:46;;;;;;;0.30;0.30;;;23.50;99.90;;;;;;5134914;27;20039;-74
2023/07/07 08:11:17;;;;;;;0.50;0.50;;;23.60;99.90;;;;;;5134994;27;20054;-73
2023/07/07 08:13:43;;;;;;;0.30;0.30;;;23.70;99.90;;;;;;5134963;27;20043;-73
2023/07/07 08:16:10;;;;;;;0.20;0.20;;;23.80;99.90;;;;;;5135093;27;20042;-74
2023/07/07 08:18:37;;;;;;;0.30;0.30;;;23.80;99.90;;;;;;5134829;27;20042;-73
2023/07/07 08:21:03;;;;;;;0.30;0.30;;;23.80;99.90;;;;;;5135050;27;20035;-74
2023/07/07 08:23:29;;;;;;;0.30;0.30;;;23.80;99.90;;;;;;5134899;27;20035;-73
2023/07/07 08:25:55;;;;;;;0.40;0.40;;;23.80;99.90;;;;;;5131371;27;20043;-73
2023/07/07 08:28:21;;;;;;;0.40;0.40;;;23.90;99.90;;;;;;5122054;27;20104;-74
2023/07/07 08:30:46;;;;;;;0.40;0.40;;;23.90;99.90;;;;;;5126465;27;20475;-74
2023/07/07 08:33:12;;;;;;;0.40;0.40;;;24.10;99.90;;;;;;5119449;27;20036;-73
2023/07/07 08:35:38;;;;;;;0.30;0.30;;;24.20;99.90;;;;;;5121870;27;20040;-73
2023/07/07 08:38:04;;;;;;;0.30;0.30;;;24.30;99.90;;;;;;5120794;27;20494;-73
2023/07/07 08:40:46;;;;;;;0.40;0.40;;;24.50;99.90;;;;;;5132625;27;20149;-74
2023/07/07 08:43:12;;;;;;;0.30;0.30;;;24.60;99.70;;;;;;5122850;27;20043;-75
2023/07/07 08:45:46;;;;;;;0.30;0.30;;;24.60;99.90;;;;;;5125464;27;20482;-73
2023/07/07 08:48:12;;;;;;;0.30;0.30;;;24.60;99.90;;;;;;5134727;27;20063;-74
2023/07/07 08:50:47;;;;;;;0.37;0.37;;;24.70;99.90;;;;;;5134390;27;20544;-80
2023/07/07 08:53:41;;;;;;;0.30;0.30;;;24.80;98.80;;;;;;5134320;27;20395;-72
2023/07/07 08:56:34;;;;;;;0.52;0.52;;;24.90;99.60;;;;;;5120747;28;20039;-72
2023/07/07 08:59:20;;;;;;;0.40;0.40;;;25.00;98.50;;;;;;5123896;28;20040;-71
2023/07/07 09:01:56;;;;;;;0.20;0.20;;;25.10;97.70;;;;;;5123042;28;20039;-71
2023/07/07 09:04:25;;;;;;;0.30;0.30;;;25.20;98.90;;;;;;5131008;28;20474;-71
2023/07/07 09:07:17;;;;;;;0.28;0.28;;;25.10;96.10;;;;;;5134258;28;20092;-71
2023/07/07 09:09:51;;;;;;;0.20;0.20;;;25.20;96.50;;;;;;5134153;28;20051;-72
2023/07/07 09:12:30;;;;;;;0.28;0.28;;;25.30;97.80;;;;;;5134221;28;20043;-72
2023/07/07 09:14:59;;;;;;;0.30;0.30;;;25.40;98.00;;;;;;5134362;28;20043;-71
2023/07/07 09:17:38;;;;;;;0.20;0.20;;;25.40;96.40;;;;;;5134096;28;20046;-73
2023/07/07 09:20:05;;;;;;;0.20;0.20;;;25.30;94.90;;;;;;5134432;28;20043;-72
2023/07/07 09:22:43;;;;;;;0.25;0.25;;;25.40;97.40;;;;;;5115614;28;20035;-71
2023/07/07 09:25:19;;;;;;;0.20;0.20;;;25.30;96.50;;;;;;5134308;28;20118;-71
2023/07/07 09:28:07;;;;;;;0.20;0.20;;;25.30;96.90;;;;;;5134436;28;20069;-71
2023/07/07 09:30:54;;;;;;;0.20;0.20;;;25.50;97.20;;;;;;5133938;27;20075;-76
2023/07/07 09:33:22;;;;;;;0.20;0.20;;;25.50;97.20;;;;;;5122019;27;20423;-73
2023/07/07 09:36:05;;;;;;;0.30;0.30;;;25.50;96.50;;;;;;5131033;27;20108;-74
2023/07/07 09:38:44;;;;;;;0.30;0.30;;;25.50;96.00;;;;;;5117577;28;20043;-73
2023/07/07 09:41:51;;;;;;;0.20;0.20;;;25.50;96.80;;;;;;5117745;28;20048;-71
2023/07/07 09:44:46;;;;;;;0.60;0.60;;;25.60;96.70;;;;;;5085340;28;20056;-73
2023/07/07 09:47:20;;;;;;;0.30;0.30;;;25.70;95.60;;;;;;5116832;28;20486;-72
2023/07/07 09:50:01;;;;;;;0.30;0.30;;;25.70;95.40;;;;;;5117304;28;20079;-72
2023/07/07 09:52:47;;;;;;;0.22;0.22;;;25.70;95.10;;;;;;5117305;28;20375;-72
2023/07/07 09:55:18;;;;;;;0.30;0.30;;;25.80;96.00;;;;;;5116972;28;20051;-72
2023/07/07 09:58:25;;;;;;;0.30;0.30;;;25.90;95.20;;;;;;5116793;28;20118;-72
2023/07/07 10:00:55;;;;;;;0.30;0.30;;;25.90;95.10;;;;;;5117043;28;20382;-71
2023/07/07 10:03:27;;;;;;;0.30;0.30;;;26.00;96.00;;;;;;5116990;28;20050;-71
2023/07/07 10:05:54;;;;;;;0.30;0.30;;;26.00;95.90;;;;;;5133045;27;20047;-72
2023/07/07 10:08:20;;;;;;;0.30;0.30;;;26.10;94.90;;;;;;5137598;27;20122;-71
2023/07/07 10:11:20;;;;;;;0.30;0.30;;;26.20;96.30;;;;;;5137070;27;20443;-72
2023/07/07 10:13:47;;;;;;;0.30;0.30;;;26.30;95.50;;;;;;5137409;27;20039;-74
2023/07/07 10:16:32;;;;;;;0.30;0.30;;;26.20;95.20;;;;;;5137069;27;20466;-71
2023/07/07 10:19:01;;;;;;;0.20;0.20;;;26.30;95.20;;;;;;5137296;27;20079;-70
2023/07/07 10:21:27;;;;;;;0.30;0.30;;;26.40;94.20;;;;;;5136875;27;20050;-71
2023/07/07 10:23:53;;;;;;;0.30;0.30;;;26.50;92.90;;;;;;5119088;27;20118;-71
2023/07/07 10:26:19;;;;;;;0.20;0.20;;;26.40;93.60;;;;;;5137403;27;20690;-71
2023/07/07 10:28:47;;;;;;;0.25;0.25;;;26.40;93.10;;;;;;5137158;27;20090;-71
2023/07/07 10:31:14;;;;;;;0.40;0.40;;;26.40;92.60;;;;;;5136954;27;20039;-71
2023/07/07 10:33:41;;;;;;;0.30;0.30;;;26.40;93.80;;;;;;5136737;27;20078;-73
2023/07/07 10:36:27;;;;;;;0.40;0.40;;;26.50;94.30;;;;;;5137081;27;20095;-72
2023/07/07 10:38:55;;;;;;;0.30;0.30;;;26.60;95.00;;;;;;5118452;27;20158;-71
2023/07/07 10:41:22;;;;;;;0.30;0.30;;;26.70;94.60;;;;;;5137083;27;20039;-73
2023/07/07 10:43:47;;;;;;;0.65;0.50;;;26.80;94.70;;;;;;5136322;27;20042;-71
2023/07/07 10:46:13;;;;;;;0.30;0.30;;;26.90;93.80;;;;;;5136864;27;20056;-71
2023/07/07 10:48:39;;;;;;;0.50;0.50;;;26.80;92.30;;;;;;5136337;27;20035;-71
2023/07/07 10:51:11;;;;;;;0.30;0.30;;;26.70;92.40;;;;;;5136784;27;20087;-71
2023/07/07 10:53:54;;;;;;;0.30;0.30;;;26.70;92.60;;;;;;5136872;27;20129;-72
2023/07/07 10:56:37;;;;;;;0.30;0.30;;;26.70;92.60;;;;;;5136813;27;20049;-73
2023/07/07 10:59:17;;;;;;;0.50;0.50;;;26.80;92.60;;;;;;5136162;27;20456;-74
2023/07/07 11:02:00;;;;;;;0.30;0.30;;;26.80;92.20;;;;;;5136593;27;20039;-74
2023/07/07 11:04:57;;;;;;;0.30;0.30;;;26.70;91.60;;;;;;5136369;27;20474;-72
2023/07/07 11:08:15;;;;;;;0.20;0.20;;;26.70;91.80;;;;;;5117805;27;20038;-73
2023/07/07 11:10:55;;;;;;;0.30;0.30;;;26.90;91.40;;;;;;5033174;28;20088;-73
2023/07/07 11:13:43;;;;;;;0.22;0.22;;;26.90;89.70;;;;;;5032979;28;20042;-74
2023/07/07 11:16:36;;;;;;;0.30;0.30;;;27.00;91.80;;;;;;5116495;27;20054;-72
2023/07/07 11:19:10;;;;;;;0.20;0.20;;;27.00;90.20;;;;;;5083727;27;20047;-72
2023/07/07 11:21:57;;;;;;;0.40;0.40;;;27.00;91.00;;;;;;5136243;27;20043;-73
2023/07/07 11:24:34;;;;;;;0.20;0.20;;;27.10;91.00;;;;;;5136536;27;20132;-72
2023/07/07 11:27:26;;;;;;;0.30;0.30;;;27.20;91.10;;;;;;5136351;27;20054;-73
2023/07/07 11:29:52;;;;;;;0.30;0.30;;;27.30;91.20;;;;;;5096213;27;20368;-72
2023/07/07 11:32:56;;;;;;;0.40;0.40;;;27.40;90.90;;;;;;5135897;27;20046;-73
2023/07/07 11:35:45;;;;;;;0.20;0.20;;;27.50;91.80;;;;;;5136066;27;20039;-73
2023/07/07 11:38:39;;;;;;;0.65;0.65;;;27.70;89.40;;;;;;5135995;27;20039;-72
2023/07/07 11:41:36;;;;;;;0.30;0.30;;;27.70;90.30;;;;;;5136025;27;20047;-74
2023/07/07 11:44:02;;;;;;;0.37;0.37;;;27.70;90.50;;;;;;5128102;27;20057;-73
2023/07/07 11:46:33;;;;;;;0.30;0.30;;;27.80;90.30;;;;;;5135641;27;20289;-73
2023/07/07 11:49:06;;;;;;;0.30;0.30;;;27.80;87.90;;;;;;5135405;27;20449;-72
2023/07/07 11:51:33;;;;;;;0.43;0.43;;;27.80;86.00;;;;;;5135729;27;20043;-75
2023/07/07 11:54:23;;;;;;;0.20;0.20;;;27.70;88.30;;;;;;5135007;27;20043;-74
2023/07/07 11:56:52;;;;;;;0.30;0.30;;;27.80;89.50;;;;;;5135613;27;20459;-73
2023/07/07 11:59:23;;;;;;;0.20;0.20;;;27.80;86.90;;;;;;5135380;27;20039;-74
2023/07/07 12:01:52;;;;;;;0.30;0.30;;;27.90;87.50;;;;;;5134999;27;20048;-72
2023/07/07 12:04:30;;;;;;;0.40;0.40;;;28.00;87.50;;;;;;5135136;27;20062;-73
2023/07/07 12:07:01;;;;;;;0.30;0.30;;;27.90;85.80;;;;;;5135430;27;20047;-72
2023/07/07 12:09:45;;;;;;;0.30;0.30;;;27.80;85.30;;;;;;5133779;27;20043;-71
2023/07/07 12:12:19;;;;;;;1.55;0.30;;;27.90;86.50;;;;;;5134796;27;20035;-73
2023/07/07 12:15:00;;;;;;;0.28;0.28;;;27.80;87.60;;;;;;5134424;27;20498;-75
2023/07/07 12:17:32;;;;;;;0.30;0.30;;;27.90;86.70;;;;;;5134862;27;20486;-74
2023/07/07 12:20:26;;;;;;;0.63;0.63;;;28.10;87.40;;;;;;5134900;27;20035;-74
2023/07/07 12:22:51;;;;;;;0.30;0.30;;;28.20;85.00;;;;;;5116642;27;20050;-75
2023/07/07 12:25:23;;;;;;;0.30;0.30;;;28.20;83.30;;;;;;5134946;27;20035;-75
2023/07/07 12:27:51;;;;;;;0.20;0.20;;;28.30;86.40;;;;;;5134821;27;20047;-75
2023/07/07 12:30:40;;;;;;;3.60;0.52;;;28.30;82.70;;;;;;5116640;27;20078;-74
2023/07/07 12:33:10;;;;;;;0.30;0.30;;;28.30;85.70;;;;;;5134362;27;20080;-75
2023/07/07 12:35:52;;;;;;;0.30;0.30;;;28.30;84.60;;;;;;5134978;27;20074;-74
2023/07/07 12:38:31;;;;;;;0.30;0.30;;;28.30;86.40;;;;;;5134464;27;20511;-74
2023/07/07 12:41:00;;;;;;;0.60;0.60;;;28.30;86.10;;;;;;5134810;27;20065;-72
2023/07/07 12:43:50;;;;;;;0.30;0.30;;;28.30;81.70;;;;;;5134400;27;20053;-72
2023/07/07 12:46:19;;;;;;;0.73;0.73;;;28.30;80.60;;;;;;5125249;27;20043;-73
2023/07/07 12:48:45;;;;;;;0.20;0.20;;;28.30;82.30;;;;;;5134637;28;20379;-72
2023/07/07 12:51:12;;;;;;;0.30;0.30;;;28.20;84.50;;;;;;5134259;27;20420;-73
2023/07/07 12:53:47;;;;;;;0.25;0.25;;;28.20;83.30;;;;;;5133972;27;20078;-72
2023/07/07 12:56:18;;;;;;;0.30;0.30;;;28.40;83.60;;;;;;5134839;27;20035;-73
2023/07/07 12:58:48;;;;;;;0.35;0.35;;;28.50;87.50;;;;;;5134408;27;20122;-73
2023/07/07 13:01:14;;;;;;;0.20;0.20;;;28.60;84.20;;;;;;5116191;28;20050;-74
2023/07/07 13:03:44;;;;;;;0.47;0.43;;;28.70;82.60;;;;;;5134099;28;20051;-74
2023/07/07 13:06:22;;;;;;;0.30;0.30;;;28.70;86.60;;;;;;5137216;27;20043;-73